sensor_id;sensor_type;location;lat;lon;timestamp;P1;P2;P0
31330;PMS5003;34067;39.548;-76.088;2024-03-07T00:00:37;10;9;
31330;PMS5003;34067;39.548;-76.088;2024-03-07T00:03:05;11;11;
31330;PMS5003;34067;39.548;-76.088;2024-03-07T00:05:33;16;16;
31330;PMS5003;34067;39.548;-76.088;2024-03-07T00:08:01;13;12;
31330;PMS5003;34067;39.548;-76.088;2024-03-07T00:10:29;12;11;
31330;PMS5003;34067;39.548;-76.088;2024-03-07T00:12:57;17;15;
31330;PMS5003;34067;39.548;-76.088;2024-03-07T00:15:25;11;11;
31330;PMS5003;34067;39.548;-76.088;2024-03-07T00:17:52;11;11;
31330;PMS5003;34067;39.548;-76.088;2024-03-07T00:20:20;18;15;
31330;PMS5003;34067;39.548;-76.088;2024-03-07T00:22:48;13;13;
31330;PMS5003;34067;39.548;-76.088;2024-03-07T00:25:16;12;12;
31330;PMS5003;34067;39.548;-76.088;2024-03-07T00:27:44;13;13;
31330;PMS5003;34067;39.548;-76.088;2024-03-07T00:30:12;14;13;
31330;PMS5003;34067;39.548;-76.088;2024-03-07T00:32:39;15;14;
31330;PMS5003;34067;39.548;-76.088;2024-03-07T00:35:07;14;12;
31330;PMS5003;34067;39.548;-76.088;2024-03-07T00:37:35;18;16;
31330;PMS5003;34067;39.548;-76.088;2024-03-07T00:40:04;17;16;
31330;PMS5003;34067;39.548;-76.088;2024-03-07T00:42:32;19;18;
31330;PMS5003;34067;39.548;-76.088;2024-03-07T00:45:00;15;15;
31330;PMS5003;34067;39.548;-76.088;2024-03-07T00:47:29;16;15;
31330;PMS5003;34067;39.548;-76.088;2024-03-07T00:49:56;15;14;
31330;PMS5003;34067;39.548;-76.088;2024-03-07T00:52:24;20;18;
31330;PMS5003;34067;39.548;-76.088;2024-03-07T00:54:53;20;19;
31330;PMS5003;34067;39.548;-76.088;2024-03-07T00:57:20;17;16;
31330;PMS5003;34067;39.548;-76.088;2024-03-07T00:59:48;18;15;
31330;PMS5003;34067;39.548;-76.088;2024-03-07T01:02:16;19;17;
31330;PMS5003;34067;39.548;-76.088;2024-03-07T01:04:44;20;16;
31330;PMS5003;34067;39.548;-76.088;2024-03-07T01:07:13;17;16;
31330;PMS5003;34067;39.548;-76.088;2024-03-07T01:09:41;22;19;
31330;PMS5003;34067;39.548;-76.088;2024-03-07T01:12:09;21;19;
31330;PMS5003;34067;39.548;-76.088;2024-03-07T01:14:37;21;17;
31330;PMS5003;34067;39.548;-76.088;2024-03-07T01:17:05;18;17;
31330;PMS5003;34067;39.548;-76.088;2024-03-07T01:19:33;21;19;
31330;PMS5003;34067;39.548;-76.088;2024-03-07T01:22:02;22;19;
31330;PMS5003;34067;39.548;-76.088;2024-03-07T01:24:30;24;22;
31330;PMS5003;34067;39.548;-76.088;2024-03-07T01:26:58;17;16;
31330;PMS5003;34067;39.548;-76.088;2024-03-07T01:29:25;19;17;
31330;PMS5003;34067;39.548;-76.088;2024-03-07T01:31:53;20;18;
31330;PMS5003;34067;39.548;-76.088;2024-03-07T01:34:22;23;20;
31330;PMS5003;34067;39.548;-76.088;2024-03-07T01:36:50;19;19;
31330;PMS5003;34067;39.548;-76.088;2024-03-07T01:39:18;23;22;
31330;PMS5003;34067;39.548;-76.088;2024-03-07T01:41:45;18;16;
31330;PMS5003;34067;39.548;-76.088;2024-03-07T01:44:14;20;19;
31330;PMS5003;34067;39.548;-76.088;2024-03-07T01:46:42;19;18;
31330;PMS5003;34067;39.548;-76.088;2024-03-07T01:49:10;22;19;
31330;PMS5003;34067;39.548;-76.088;2024-03-07T01:51:38;20;20;
31330;PMS5003;34067;39.548;-76.088;2024-03-07T01:54:07;21;20;
31330;PMS5003;34067;39.548;-76.088;2024-03-07T01:56:37;24;22;
31330;PMS5003;34067;39.548;-76.088;2024-03-07T01:59:07;22;21;
31330;PMS5003;34067;39.548;-76.088;2024-03-07T02:01:36;27;22;
31330;PMS5003;34067;39.548;-76.088;2024-03-07T02:04:05;19;19;
31330;PMS5003;34067;39.548;-76.088;2024-03-07T02:06:34;24;20;
31330;PMS5003;34067;39.548;-76.088;2024-03-07T02:09:02;27;24;
31330;PMS5003;34067;39.548;-76.088;2024-03-07T02:11:31;25;22;
31330;PMS5003;34067;39.548;-76.088;2024-03-07T02:13:59;29;26;
31330;PMS5003;34067;39.548;-76.088;2024-03-07T02:16:27;26;22;
31330;PMS5003;34067;39.548;-76.088;2024-03-07T02:18:56;30;28;
31330;PMS5003;34067;39.548;-76.088;2024-03-07T02:21:25;34;32;
31330;PMS5003;34067;39.548;-76.088;2024-03-07T02:23:53;23;23;
31330;PMS5003;34067;39.548;-76.088;2024-03-07T02:26:21;24;20;
31330;PMS5003;34067;39.548;-76.088;2024-03-07T02:28:49;26;23;
31330;PMS5003;34067;39.548;-76.088;2024-03-07T02:31:18;25;21;
31330;PMS5003;34067;39.548;-76.088;2024-03-07T02:33:46;34;29;
31330;PMS5003;34067;39.548;-76.088;2024-03-07T02:36:14;29;26;
31330;PMS5003;34067;39.548;-76.088;2024-03-07T02:38:42;22;21;
31330;PMS5003;34067;39.548;-76.088;2024-03-07T02:41:10;34;27;
31330;PMS5003;34067;39.548;-76.088;2024-03-07T02:43:38;22;19;
31330;PMS5003;34067;39.548;-76.088;2024-03-07T02:46:06;30;23;
31330;PMS5003;34067;39.548;-76.088;2024-03-07T02:48:34;33;29;
31330;PMS5003;34067;39.548;-76.088;2024-03-07T02:51:02;27;25;
31330;PMS5003;34067;39.548;-76.088;2024-03-07T02:53:30;24;23;
31330;PMS5003;34067;39.548;-76.088;2024-03-07T02:55:58;24;22;
31330;PMS5003;34067;39.548;-76.088;2024-03-07T02:58:26;27;24;
31330;PMS5003;34067;39.548;-76.088;2024-03-07T03:00:57;23;21;
31330;PMS5003;34067;39.548;-76.088;2024-03-07T03:03:25;27;24;
31330;PMS5003;34067;39.548;-76.088;2024-03-07T03:05:53;25;23;
31330;PMS5003;34067;39.548;-76.088;2024-03-07T03:08:21;23;21;
31330;PMS5003;34067;39.548;-76.088;2024-03-07T03:10:49;24;20;
31330;PMS5003;34067;39.548;-76.088;2024-03-07T03:13:16;27;27;
31330;PMS5003;34067;39.548;-76.088;2024-03-07T03:15:44;25;21;
31330;PMS5003;34067;39.548;-76.088;2024-03-07T03:18:12;24;22;
31330;PMS5003;34067;39.548;-76.088;2024-03-07T03:20:41;20;20;
31330;PMS5003;34067;39.548;-76.088;2024-03-07T03:23:09;25;23;
31330;PMS5003;34067;39.548;-76.088;2024-03-07T03:25:36;22;21;
31330;PMS5003;34067;39.548;-76.088;2024-03-07T03:28:05;18;17;
31330;PMS5003;34067;39.548;-76.088;2024-03-07T03:30:33;19;18;
31330;PMS5003;34067;39.548;-76.088;2024-03-07T03:33:00;19;18;
31330;PMS5003;34067;39.548;-76.088;2024-03-07T03:35:28;24;22;
31330;PMS5003;34067;39.548;-76.088;2024-03-07T03:37:56;20;18;
31330;PMS5003;34067;39.548;-76.088;2024-03-07T03:40:24;25;18;
31330;PMS5003;34067;39.548;-76.088;2024-03-07T03:42:52;21;18;
31330;PMS5003;34067;39.548;-76.088;2024-03-07T03:45:20;24;21;
31330;PMS5003;34067;39.548;-76.088;2024-03-07T03:47:48;18;17;
31330;PMS5003;34067;39.548;-76.088;2024-03-07T03:50:16;30;22;
31330;PMS5003;34067;39.548;-76.088;2024-03-07T03:52:44;24;22;
31330;PMS5003;34067;39.548;-76.088;2024-03-07T03:55:12;30;27;
31330;PMS5003;34067;39.548;-76.088;2024-03-07T03:57:42;28;26;
31330;PMS5003;34067;39.548;-76.088;2024-03-07T04:00:10;27;22;
31330;PMS5003;34067;39.548;-76.088;2024-03-07T04:02:40;28;27;
31330;PMS5003;34067;39.548;-76.088;2024-03-07T04:05:08;29;24;
31330;PMS5003;34067;39.548;-76.088;2024-03-07T04:07:38;33;29;
31330;PMS5003;34067;39.548;-76.088;2024-03-07T04:10:06;23;22;
31330;PMS5003;34067;39.548;-76.088;2024-03-07T04:12:34;26;21;
31330;PMS5003;34067;39.548;-76.088;2024-03-07T04:15:03;26;22;
31330;PMS5003;34067;39.548;-76.088;2024-03-07T04:17:31;22;21;
31330;PMS5003;34067;39.548;-76.088;2024-03-07T04:20:00;33;28;
31330;PMS5003;34067;39.548;-76.088;2024-03-07T04:22:28;24;22;
31330;PMS5003;34067;39.548;-76.088;2024-03-07T04:24:56;24;21;
31330;PMS5003;34067;39.548;-76.088;2024-03-07T04:27:24;31;24;
31330;PMS5003;34067;39.548;-76.088;2024-03-07T04:29:52;22;18;
31330;PMS5003;34067;39.548;-76.088;2024-03-07T04:32:20;31;22;
31330;PMS5003;34067;39.548;-76.088;2024-03-07T04:34:48;20;19;
31330;PMS5003;34067;39.548;-76.088;2024-03-07T04:37:15;21;20;
31330;PMS5003;34067;39.548;-76.088;2024-03-07T04:39:43;23;22;
31330;PMS5003;34067;39.548;-76.088;2024-03-07T04:42:10;20;17;
31330;PMS5003;34067;39.548;-76.088;2024-03-07T04:44:38;24;21;
31330;PMS5003;34067;39.548;-76.088;2024-03-07T04:47:06;19;18;
31330;PMS5003;34067;39.548;-76.088;2024-03-07T04:49:34;17;17;
31330;PMS5003;34067;39.548;-76.088;2024-03-07T04:52:02;20;16;
31330;PMS5003;34067;39.548;-76.088;2024-03-07T04:54:30;18;18;
31330;PMS5003;34067;39.548;-76.088;2024-03-07T04:56:58;19;16;
31330;PMS5003;34067;39.548;-76.088;2024-03-07T04:59:26;18;17;
31330;PMS5003;34067;39.548;-76.088;2024-03-07T05:01:54;21;18;
31330;PMS5003;34067;39.548;-76.088;2024-03-07T05:04:22;15;15;
31330;PMS5003;34067;39.548;-76.088;2024-03-07T05:06:50;22;20;
31330;PMS5003;34067;39.548;-76.088;2024-03-07T05:09:17;18;18;
31330;PMS5003;34067;39.548;-76.088;2024-03-07T05:11:45;15;14;
31330;PMS5003;34067;39.548;-76.088;2024-03-07T05:14:13;14;14;
31330;PMS5003;34067;39.548;-76.088;2024-03-07T05:16:41;12;11;
31330;PMS5003;34067;39.548;-76.088;2024-03-07T05:19:09;17;16;
31330;PMS5003;34067;39.548;-76.088;2024-03-07T05:21:37;21;20;
31330;PMS5003;34067;39.548;-76.088;2024-03-07T05:24:05;16;14;
31330;PMS5003;34067;39.548;-76.088;2024-03-07T05:26:34;13;12;
31330;PMS5003;34067;39.548;-76.088;2024-03-07T05:29:02;16;13;
31330;PMS5003;34067;39.548;-76.088;2024-03-07T05:31:31;18;16;
31330;PMS5003;34067;39.548;-76.088;2024-03-07T05:33:59;12;11;
31330;PMS5003;34067;39.548;-76.088;2024-03-07T05:36:28;16;15;
31330;PMS5003;34067;39.548;-76.088;2024-03-07T05:38:56;17;17;
31330;PMS5003;34067;39.548;-76.088;2024-03-07T05:41:24;16;12;
31330;PMS5003;34067;39.548;-76.088;2024-03-07T05:43:52;16;14;
31330;PMS5003;34067;39.548;-76.088;2024-03-07T05:46:20;25;20;
31330;PMS5003;34067;39.548;-76.088;2024-03-07T05:48:48;17;17;
31330;PMS5003;34067;39.548;-76.088;2024-03-07T05:51:16;15;14;
31330;PMS5003;34067;39.548;-76.088;2024-03-07T05:53:44;15;14;
31330;PMS5003;34067;39.548;-76.088;2024-03-07T05:56:11;15;14;
31330;PMS5003;34067;39.548;-76.088;2024-03-07T05:58:39;15;15;
31330;PMS5003;34067;39.548;-76.088;2024-03-07T06:03:13;20;19;
31330;PMS5003;34067;39.548;-76.088;2024-03-07T06:05:41;19;16;
31330;PMS5003;34067;39.548;-76.088;2024-03-07T06:08:09;25;24;
31330;PMS5003;34067;39.548;-76.088;2024-03-07T06:10:37;22;21;
31330;PMS5003;34067;39.548;-76.088;2024-03-07T06:13:05;18;17;
31330;PMS5003;34067;39.548;-76.088;2024-03-07T06:15:33;23;22;
31330;PMS5003;34067;39.548;-76.088;2024-03-07T06:18:00;23;21;
31330;PMS5003;34067;39.548;-76.088;2024-03-07T06:20:29;27;23;
31330;PMS5003;34067;39.548;-76.088;2024-03-07T06:22:57;17;17;
31330;PMS5003;34067;39.548;-76.088;2024-03-07T06:25:25;23;22;
31330;PMS5003;34067;39.548;-76.088;2024-03-07T06:27:53;18;17;
31330;PMS5003;34067;39.548;-76.088;2024-03-07T06:30:21;20;19;
31330;PMS5003;34067;39.548;-76.088;2024-03-07T06:32:48;23;22;
31330;PMS5003;34067;39.548;-76.088;2024-03-07T06:35:16;22;21;
31330;PMS5003;34067;39.548;-76.088;2024-03-07T06:37:44;25;24;
31330;PMS5003;34067;39.548;-76.088;2024-03-07T06:40:12;20;20;
31330;PMS5003;34067;39.548;-76.088;2024-03-07T06:42:39;18;17;
31330;PMS5003;34067;39.548;-76.088;2024-03-07T06:45:07;20;17;
31330;PMS5003;34067;39.548;-76.088;2024-03-07T06:47:35;17;16;
31330;PMS5003;34067;39.548;-76.088;2024-03-07T06:50:02;16;16;
31330;PMS5003;34067;39.548;-76.088;2024-03-07T06:52:31;16;15;
31330;PMS5003;34067;39.548;-76.088;2024-03-07T06:54:59;13;12;
31330;PMS5003;34067;39.548;-76.088;2024-03-07T06:57:27;14;13;
31330;PMS5003;34067;39.548;-76.088;2024-03-07T06:59:54;14;13;
31330;PMS5003;34067;39.548;-76.088;2024-03-07T07:02:22;16;15;
31330;PMS5003;34067;39.548;-76.088;2024-03-07T07:04:50;18;15;
31330;PMS5003;34067;39.548;-76.088;2024-03-07T07:07:19;15;14;
31330;PMS5003;34067;39.548;-76.088;2024-03-07T07:09:47;17;16;
31330;PMS5003;34067;39.548;-76.088;2024-03-07T07:12:15;15;14;
31330;PMS5003;34067;39.548;-76.088;2024-03-07T07:14:43;14;14;
31330;PMS5003;34067;39.548;-76.088;2024-03-07T07:17:11;14;13;
31330;PMS5003;34067;39.548;-76.088;2024-03-07T07:19:39;18;17;
31330;PMS5003;34067;39.548;-76.088;2024-03-07T07:22:07;23;21;
31330;PMS5003;34067;39.548;-76.088;2024-03-07T07:24:37;15;15;
31330;PMS5003;34067;39.548;-76.088;2024-03-07T07:27:05;15;13;
31330;PMS5003;34067;39.548;-76.088;2024-03-07T07:29:33;15;15;
31330;PMS5003;34067;39.548;-76.088;2024-03-07T07:32:01;16;16;
31330;PMS5003;34067;39.548;-76.088;2024-03-07T07:34:29;15;14;
31330;PMS5003;34067;39.548;-76.088;2024-03-07T07:36:57;11;10;
31330;PMS5003;34067;39.548;-76.088;2024-03-07T07:39:26;14;13;
31330;PMS5003;34067;39.548;-76.088;2024-03-07T07:41:54;9;9;
31330;PMS5003;34067;39.548;-76.088;2024-03-07T07:44:21;11;9;
31330;PMS5003;34067;39.548;-76.088;2024-03-07T07:46:50;12;11;
31330;PMS5003;34067;39.548;-76.088;2024-03-07T07:49:18;8;8;
31330;PMS5003;34067;39.548;-76.088;2024-03-07T07:51:46;11;10;
31330;PMS5003;34067;39.548;-76.088;2024-03-07T07:54:14;11;10;
31330;PMS5003;34067;39.548;-76.088;2024-03-07T07:56:42;10;10;
31330;PMS5003;34067;39.548;-76.088;2024-03-07T07:59:10;8;7;
31330;PMS5003;34067;39.548;-76.088;2024-03-07T08:01:38;9;8;
31330;PMS5003;34067;39.548;-76.088;2024-03-07T08:04:11;8;7;
31330;PMS5003;34067;39.548;-76.088;2024-03-07T08:06:38;9;8;
31330;PMS5003;34067;39.548;-76.088;2024-03-07T08:09:07;8;6;
31330;PMS5003;34067;39.548;-76.088;2024-03-07T08:11:35;10;10;
31330;PMS5003;34067;39.548;-76.088;2024-03-07T08:14:03;9;8;
31330;PMS5003;34067;39.548;-76.088;2024-03-07T08:16:31;7;6;
31330;PMS5003;34067;39.548;-76.088;2024-03-07T08:18:59;6;6;
31330;PMS5003;34067;39.548;-76.088;2024-03-07T08:21:27;7;7;
31330;PMS5003;34067;39.548;-76.088;2024-03-07T08:23:55;7;7;
31330;PMS5003;34067;39.548;-76.088;2024-03-07T08:26:23;9;7;
31330;PMS5003;34067;39.548;-76.088;2024-03-07T08:28:52;6;5;
31330;PMS5003;34067;39.548;-76.088;2024-03-07T08:31:20;7;7;
31330;PMS5003;34067;39.548;-76.088;2024-03-07T08:33:48;7;7;
31330;PMS5003;34067;39.548;-76.088;2024-03-07T08:36:16;7;5;
31330;PMS5003;34067;39.548;-76.088;2024-03-07T08:38:44;7;7;
31330;PMS5003;34067;39.548;-76.088;2024-03-07T08:41:12;8;7;
31330;PMS5003;34067;39.548;-76.088;2024-03-07T08:43:40;5;5;
31330;PMS5003;34067;39.548;-76.088;2024-03-07T08:46:08;8;7;
31330;PMS5003;34067;39.548;-76.088;2024-03-07T08:48:37;6;6;
31330;PMS5003;34067;39.548;-76.088;2024-03-07T08:51:05;7;6;
31330;PMS5003;34067;39.548;-76.088;2024-03-07T08:53:33;6;6;
31330;PMS5003;34067;39.548;-76.088;2024-03-07T08:56:01;4;4;
31330;PMS5003;34067;39.548;-76.088;2024-03-07T08:58:29;5;5;
31330;PMS5003;34067;39.548;-76.088;2024-03-07T09:00:57;7;6;
31330;PMS5003;34067;39.548;-76.088;2024-03-07T09:03:25;6;5;
31330;PMS5003;34067;39.548;-76.088;2024-03-07T09:05:53;4;4;
31330;PMS5003;34067;39.548;-76.088;2024-03-07T09:08:22;5;5;
31330;PMS5003;34067;39.548;-76.088;2024-03-07T09:10:50;7;6;
31330;PMS5003;34067;39.548;-76.088;2024-03-07T09:13:18;5;4;
31330;PMS5003;34067;39.548;-76.088;2024-03-07T09:15:46;4;4;
31330;PMS5003;34067;39.548;-76.088;2024-03-07T09:18:15;4;4;
31330;PMS5003;34067;39.548;-76.088;2024-03-07T09:20:43;4;4;
31330;PMS5003;34067;39.548;-76.088;2024-03-07T09:23:11;4;4;
31330;PMS5003;34067;39.548;-76.088;2024-03-07T09:25:39;5;5;
31330;PMS5003;34067;39.548;-76.088;2024-03-07T09:28:07;5;5;
31330;PMS5003;34067;39.548;-76.088;2024-03-07T09:30:35;4;4;
31330;PMS5003;34067;39.548;-76.088;2024-03-07T09:33:03;3;3;
31330;PMS5003;34067;39.548;-76.088;2024-03-07T09:35:31;4;4;
31330;PMS5003;34067;39.548;-76.088;2024-03-07T09:37:59;3;3;
31330;PMS5003;34067;39.548;-76.088;2024-03-07T09:40:27;5;5;
31330;PMS5003;34067;39.548;-76.088;2024-03-07T09:42:55;4;4;
31330;PMS5003;34067;39.548;-76.088;2024-03-07T09:45:29;3;3;
31330;PMS5003;34067;39.548;-76.088;2024-03-07T09:47:58;3;3;
31330;PMS5003;34067;39.548;-76.088;2024-03-07T09:50:28;3;3;
31330;PMS5003;34067;39.548;-76.088;2024-03-07T09:52:56;2;2;
31330;PMS5003;34067;39.548;-76.088;2024-03-07T09:55:26;3;3;
31330;PMS5003;34067;39.548;-76.088;2024-03-07T09:57:54;2;2;
31330;PMS5003;34067;39.548;-76.088;2024-03-07T10:00:25;2;2;
31330;PMS5003;34067;39.548;-76.088;2024-03-07T10:02:54;4;4;
31330;PMS5003;34067;39.548;-76.088;2024-03-07T10:05:26;3;3;
31330;PMS5003;34067;39.548;-76.088;2024-03-07T10:07:54;2;2;
31330;PMS5003;34067;39.548;-76.088;2024-03-07T10:10:22;3;2;
31330;PMS5003;34067;39.548;-76.088;2024-03-07T10:12:51;3;2;
31330;PMS5003;34067;39.548;-76.088;2024-03-07T10:15:19;3;3;
31330;PMS5003;34067;39.548;-76.088;2024-03-07T10:17:48;2;2;
31330;PMS5003;34067;39.548;-76.088;2024-03-07T10:20:17;2;2;
31330;PMS5003;34067;39.548;-76.088;2024-03-07T10:22:46;2;2;
31330;PMS5003;34067;39.548;-76.088;2024-03-07T10:25:16;2;2;
31330;PMS5003;34067;39.548;-76.088;2024-03-07T10:27:45;2;2;
31330;PMS5003;34067;39.548;-76.088;2024-03-07T10:30:13;2;2;
31330;PMS5003;34067;39.548;-76.088;2024-03-07T10:32:41;2;2;
31330;PMS5003;34067;39.548;-76.088;2024-03-07T10:35:09;2;2;
31330;PMS5003;34067;39.548;-76.088;2024-03-07T10:37:37;2;2;
31330;PMS5003;34067;39.548;-76.088;2024-03-07T10:40:06;2;2;
31330;PMS5003;34067;39.548;-76.088;2024-03-07T10:42:34;2;2;
31330;PMS5003;34067;39.548;-76.088;2024-03-07T10:45:04;2;2;
31330;PMS5003;34067;39.548;-76.088;2024-03-07T10:47:32;2;2;
31330;PMS5003;34067;39.548;-76.088;2024-03-07T10:50:07;2;2;
31330;PMS5003;34067;39.548;-76.088;2024-03-07T10:52:49;2;2;
31330;PMS5003;34067;39.548;-76.088;2024-03-07T10:55:28;3;3;
31330;PMS5003;34067;39.548;-76.088;2024-03-07T10:58:02;2;2;
31330;PMS5003;34067;39.548;-76.088;2024-03-07T11:00:36;1;1;
31330;PMS5003;34067;39.548;-76.088;2024-03-07T11:03:06;3;3;
31330;PMS5003;34067;39.548;-76.088;2024-03-07T11:05:34;2;2;
31330;PMS5003;34067;39.548;-76.088;2024-03-07T11:08:02;2;2;
31330;PMS5003;34067;39.548;-76.088;2024-03-07T11:10:31;1;1;
31330;PMS5003;34067;39.548;-76.088;2024-03-07T11:13:01;3;3;
31330;PMS5003;34067;39.548;-76.088;2024-03-07T11:15:29;3;2;
31330;PMS5003;34067;39.548;-76.088;2024-03-07T11:17:59;3;3;
31330;PMS5003;34067;39.548;-76.088;2024-03-07T11:20:33;2;2;
31330;PMS5003;34067;39.548;-76.088;2024-03-07T11:23:19;3;2;
31330;PMS5003;34067;39.548;-76.088;2024-03-07T11:25:53;2;2;
31330;PMS5003;34067;39.548;-76.088;2024-03-07T11:28:28;1;1;
31330;PMS5003;34067;39.548;-76.088;2024-03-07T11:31:29;2;2;
31330;PMS5003;34067;39.548;-76.088;2024-03-07T11:34:13;2;2;
31330;PMS5003;34067;39.548;-76.088;2024-03-07T11:36:42;2;2;
31330;PMS5003;34067;39.548;-76.088;2024-03-07T11:39:39;1;1;
31330;PMS5003;34067;39.548;-76.088;2024-03-07T11:42:07;1;1;
31330;PMS5003;34067;39.548;-76.088;2024-03-07T11:44:35;2;2;
31330;PMS5003;34067;39.548;-76.088;2024-03-07T11:47:03;1;1;
31330;PMS5003;34067;39.548;-76.088;2024-03-07T11:49:31;2;1;
31330;PMS5003;34067;39.548;-76.088;2024-03-07T11:51:59;2;2;
31330;PMS5003;34067;39.548;-76.088;2024-03-07T11:54:27;1;1;
31330;PMS5003;34067;39.548;-76.088;2024-03-07T11:56:55;1;1;
31330;PMS5003;34067;39.548;-76.088;2024-03-07T11:59:23;2;2;
31330;PMS5003;34067;39.548;-76.088;2024-03-07T12:01:52;1;1;
31330;PMS5003;34067;39.548;-76.088;2024-03-07T12:04:20;1;1;
31330;PMS5003;34067;39.548;-76.088;2024-03-07T12:06:50;2;2;
31330;PMS5003;34067;39.548;-76.088;2024-03-07T12:09:18;2;2;
31330;PMS5003;34067;39.548;-76.088;2024-03-07T12:11:46;2;2;
31330;PMS5003;34067;39.548;-76.088;2024-03-07T12:14:14;2;2;
31330;PMS5003;34067;39.548;-76.088;2024-03-07T12:16:42;1;1;
31330;PMS5003;34067;39.548;-76.088;2024-03-07T12:19:10;1;1;
31330;PMS5003;34067;39.548;-76.088;2024-03-07T12:21:38;2;1;
31330;PMS5003;34067;39.548;-76.088;2024-03-07T12:24:11;2;2;
31330;PMS5003;34067;39.548;-76.088;2024-03-07T12:26:39;1;1;
31330;PMS5003;34067;39.548;-76.088;2024-03-07T12:29:07;1;1;
31330;PMS5003;34067;39.548;-76.088;2024-03-07T12:31:36;1;1;
31330;PMS5003;34067;39.548;-76.088;2024-03-07T12:34:04;0;0;
31330;PMS5003;34067;39.548;-76.088;2024-03-07T12:36:32;1;1;
31330;PMS5003;34067;39.548;-76.088;2024-03-07T12:39:00;1;1;
31330;PMS5003;34067;39.548;-76.088;2024-03-07T12:41:28;0;0;
31330;PMS5003;34067;39.548;-76.088;2024-03-07T12:43:57;0;0;
31330;PMS5003;34067;39.548;-76.088;2024-03-07T12:46:25;0;0;
31330;PMS5003;34067;39.548;-76.088;2024-03-07T12:48:53;1;1;
31330;PMS5003;34067;39.548;-76.088;2024-03-07T12:51:21;0;0;
31330;PMS5003;34067;39.548;-76.088;2024-03-07T12:53:49;1;1;
31330;PMS5003;34067;39.548;-76.088;2024-03-07T12:56:17;2;1;
31330;PMS5003;34067;39.548;-76.088;2024-03-07T12:58:45;2;2;
31330;PMS5003;34067;39.548;-76.088;2024-03-07T13:01:13;1;1;
31330;PMS5003;34067;39.548;-76.088;2024-03-07T13:03:41;2;2;
31330;PMS5003;34067;39.548;-76.088;2024-03-07T13:06:09;1;1;
31330;PMS5003;34067;39.548;-76.088;2024-03-07T13:08:37;1;1;
31330;PMS5003;34067;39.548;-76.088;2024-03-07T13:11:06;1;1;
31330;PMS5003;34067;39.548;-76.088;2024-03-07T13:13:34;1;1;
31330;PMS5003;34067;39.548;-76.088;2024-03-07T13:16:02;1;1;
31330;PMS5003;34067;39.548;-76.088;2024-03-07T13:18:31;0;0;
31330;PMS5003;34067;39.548;-76.088;2024-03-07T13:20:59;1;1;
31330;PMS5003;34067;39.548;-76.088;2024-03-07T13:23:27;2;1;
31330;PMS5003;34067;39.548;-76.088;2024-03-07T13:25:55;2;1;
31330;PMS5003;34067;39.548;-76.088;2024-03-07T13:28:24;1;1;
31330;PMS5003;34067;39.548;-76.088;2024-03-07T13:30:53;1;1;
31330;PMS5003;34067;39.548;-76.088;2024-03-07T13:33:21;1;1;
31330;PMS5003;34067;39.548;-76.088;2024-03-07T13:35:49;1;1;
31330;PMS5003;34067;39.548;-76.088;2024-03-07T13:38:17;0;0;
31330;PMS5003;34067;39.548;-76.088;2024-03-07T13:40:45;1;1;
31330;PMS5003;34067;39.548;-76.088;2024-03-07T13:43:14;1;1;
31330;PMS5003;34067;39.548;-76.088;2024-03-07T13:45:41;1;1;
31330;PMS5003;34067;39.548;-76.088;2024-03-07T13:48:10;1;1;
31330;PMS5003;34067;39.548;-76.088;2024-03-07T13:50:39;0;0;
31330;PMS5003;34067;39.548;-76.088;2024-03-07T13:53:07;0;0;
31330;PMS5003;34067;39.548;-76.088;2024-03-07T13:55:39;1;1;
31330;PMS5003;34067;39.548;-76.088;2024-03-07T13:58:16;0;0;
31330;PMS5003;34067;39.548;-76.088;2024-03-07T14:00:56;0;0;
31330;PMS5003;34067;39.548;-76.088;2024-03-07T14:05:55;0;0;
31330;PMS5003;34067;39.548;-76.088;2024-03-07T14:08:35;0;0;
31330;PMS5003;34067;39.548;-76.088;2024-03-07T14:11:56;0;0;
31330;PMS5003;34067;39.548;-76.088;2024-03-07T14:14:22;0;0;
31330;PMS5003;34067;39.548;-76.088;2024-03-07T14:17:49;0;0;
31330;PMS5003;34067;39.548;-76.088;2024-03-07T14:23:01;1;0;
31330;PMS5003;34067;39.548;-76.088;2024-03-07T14:25:43;0;0;
31330;PMS5003;34067;39.548;-76.088;2024-03-07T14:28:31;1;1;
31330;PMS5003;34067;39.548;-76.088;2024-03-07T14:31:15;1;1;
31330;PMS5003;34067;39.548;-76.088;2024-03-07T14:33:54;0;0;
31330;PMS5003;34067;39.548;-76.088;2024-03-07T14:36:33;0;0;
31330;PMS5003;34067;39.548;-76.088;2024-03-07T14:39:05;2;1;
31330;PMS5003;34067;39.548;-76.088;2024-03-07T14:41:44;0;0;
31330;PMS5003;34067;39.548;-76.088;2024-03-07T14:44:17;2;2;
31330;PMS5003;34067;39.548;-76.088;2024-03-07T14:46:47;1;0;
31330;PMS5003;34067;39.548;-76.088;2024-03-07T14:49:19;1;1;
31330;PMS5003;34067;39.548;-76.088;2024-03-07T14:51:47;1;1;
31330;PMS5003;34067;39.548;-76.088;2024-03-07T14:54:16;1;0;
31330;PMS5003;34067;39.548;-76.088;2024-03-07T14:56:44;0;0;
31330;PMS5003;34067;39.548;-76.088;2024-03-07T14:59:12;1;1;
31330;PMS5003;34067;39.548;-76.088;2024-03-07T15:01:41;0;0;
31330;PMS5003;34067;39.548;-76.088;2024-03-07T15:04:09;0;0;
31330;PMS5003;34067;39.548;-76.088;2024-03-07T15:06:38;2;2;
31330;PMS5003;34067;39.548;-76.088;2024-03-07T15:09:06;2;2;
31330;PMS5003;34067;39.548;-76.088;2024-03-07T15:11:35;1;1;
31330;PMS5003;34067;39.548;-76.088;2024-03-07T15:14:04;1;1;
31330;PMS5003;34067;39.548;-76.088;2024-03-07T15:16:32;2;2;
31330;PMS5003;34067;39.548;-76.088;2024-03-07T15:19:00;1;1;
31330;PMS5003;34067;39.548;-76.088;2024-03-07T15:21:28;0;0;
31330;PMS5003;34067;39.548;-76.088;2024-03-07T15:23:56;1;1;
31330;PMS5003;34067;39.548;-76.088;2024-03-07T15:26:24;0;0;
31330;PMS5003;34067;39.548;-76.088;2024-03-07T15:28:53;0;0;
31330;PMS5003;34067;39.548;-76.088;2024-03-07T15:31:21;0;0;
31330;PMS5003;34067;39.548;-76.088;2024-03-07T15:33:49;0;0;
31330;PMS5003;34067;39.548;-76.088;2024-03-07T15:36:17;0;0;
31330;PMS5003;34067;39.548;-76.088;2024-03-07T15:38:45;1;1;
31330;PMS5003;34067;39.548;-76.088;2024-03-07T15:41:13;0;0;
31330;PMS5003;34067;39.548;-76.088;2024-03-07T15:43:41;1;1;
31330;PMS5003;34067;39.548;-76.088;2024-03-07T15:46:10;0;0;
31330;PMS5003;34067;39.548;-76.088;2024-03-07T15:48:39;0;0;
31330;PMS5003;34067;39.548;-76.088;2024-03-07T15:51:07;1;1;
31330;PMS5003;34067;39.548;-76.088;2024-03-07T15:53:35;0;0;
31330;PMS5003;34067;39.548;-76.088;2024-03-07T15:56:04;0;0;
31330;PMS5003;34067;39.548;-76.088;2024-03-07T15:58:32;0;0;
31330;PMS5003;34067;39.548;-76.088;2024-03-07T16:01:01;0;0;
31330;PMS5003;34067;39.548;-76.088;2024-03-07T16:03:29;1;1;
31330;PMS5003;34067;39.548;-76.088;2024-03-07T16:05:57;0;0;
31330;PMS5003;34067;39.548;-76.088;2024-03-07T16:08:25;0;0;
31330;PMS5003;34067;39.548;-76.088;2024-03-07T16:10:53;0;0;
31330;PMS5003;34067;39.548;-76.088;2024-03-07T16:13:21;0;0;
31330;PMS5003;34067;39.548;-76.088;2024-03-07T16:15:49;1;0;
31330;PMS5003;34067;39.548;-76.088;2024-03-07T16:18:18;0;0;
31330;PMS5003;34067;39.548;-76.088;2024-03-07T16:20:46;0;0;